Time;durP1;ratioP1;P1;durP2;ratioP2;P2;SDS_P1;SDS_P2;PMS_P1;PMS_P2;Temp;Humidity;BMP_temperature;BMP_pressure;BME280_temperature;BME280_humidity;BME280_pressure;Samples;Min_cycle;Max_cycle;Signal;HPM_P1;HPM_P2
2020/12/23 20:18:57;;;;;;;4.47;1.90;;;;;;;;;;4163972;26;20060;-53
2020/12/23 20:23:10;;;;;;;2.50;1.50;;;;;;;;;;4798471;27;8387735;-54
2020/12/23 20:25:37;;;;;;;3.53;1.73;;;;;;;;;;5108734;28;20082;-54
2020/12/23 20:28:03;;;;;;;5.07;1.90;;;;;;;;;;5110665;28;20089;-54
2020/12/23 20:30:30;;;;;;;5.30;1.67;;;;;;;;;;5110755;28;20019;-54
2020/12/23 20:32:57;;;;;;;8.37;1.47;;;;;;;;;;5114015;28;20019;-54
2020/12/23 20:35:23;;;;;;;5.93;1.93;;;;;;;;;;5130957;28;20038;-54
2020/12/23 20:37:53;;;;;;;2.43;1.40;;;;;;;;;;5131006;28;20018;-54
2020/12/23 20:40:20;;;;;;;7.93;1.70;;;;;;;;;;5130896;28;20114;-54
2020/12/23 20:42:47;;;;;;;2.87;1.33;;;;;;;;;;5130805;28;20063;-54
2020/12/23 20:45:14;;;;;;;2.67;1.50;;;;;;;;;;5130850;28;20373;-54
2020/12/23 20:47:41;;;;;;;5.50;1.70;;;;;;;;;;5130906;28;20028;-53
2020/12/23 20:50:08;;;;;;;3.00;1.43;;;;;;;;;;5130710;28;20054;-54
2020/12/23 20:52:35;;;;;;;3.33;1.77;;;;;;;;;;5130544;28;20031;-54
2020/12/23 20:55:02;;;;;;;4.10;2.10;;;;;;;;;;5130653;28;20385;-54
2020/12/23 20:57:29;;;;;;;3.87;1.80;;;;;;;;;;5130697;28;20038;-54
2020/12/23 20:59:56;;;;;;;4.10;1.90;;;;;;;;;;5130642;28;20023;-53
2020/12/23 21:02:22;;;;;;;6.90;2.10;;;;;;;;;;5130435;28;20035;-54
2020/12/23 21:04:49;;;;;;;6.73;1.93;;;;;;;;;;5130334;28;20043;-53
2020/12/23 21:07:16;;;;;;;4.97;2.30;;;;;;;;;;5130447;28;20024;-54
2020/12/23 21:09:43;;;;;;;2.17;1.40;;;;;;;;;;5130309;28;20031;-53
2020/12/23 21:12:09;;;;;;;5.67;1.60;;;;;;;;;;5130329;28;20064;-54
2020/12/23 21:14:36;;;;;;;8.27;1.80;;;;;;;;;;5130247;28;20023;-54
2020/12/23 21:17:03;;;;;;;3.53;1.63;;;;;;;;;;5130238;28;20058;-54
2020/12/23 21:19:30;;;;;;;3.37;1.30;;;;;;;;;;5130063;28;20019;-53
2020/12/23 21:21:56;;;;;;;2.37;1.30;;;;;;;;;;5130333;27;20141;-53
2020/12/23 21:24:23;;;;;;;4.50;1.70;;;;;;;;;;5130129;28;20426;-54
2020/12/23 21:26:53;;;;;;;8.60;2.58;;;;;;;;;;5130011;28;20040;-53
2020/12/23 21:29:20;;;;;;;4.77;1.60;;;;;;;;;;5130070;28;20040;-53
2020/12/23 21:31:46;;;;;;;2.77;1.67;;;;;;;;;;5111642;28;20477;-54
2020/12/23 21:34:13;;;;;;;3.03;1.60;;;;;;;;;;5115698;28;20040;-54
2020/12/23 21:36:44;;;;;;;3.57;1.70;;;;;;;;;;5116328;28;20020;-54
2020/12/23 21:39:11;;;;;;;3.87;1.50;;;;;;;;;;5116173;28;20030;-54
2020/12/23 21:41:37;;;;;;;6.87;1.90;;;;;;;;;;5116157;28;20038;-54
2020/12/23 21:44:05;;;;;;;2.23;1.37;;;;;;;;;;5116141;28;20028;-54
2020/12/23 21:46:32;;;;;;;4.33;2.03;;;;;;;;;;5115976;28;20481;-53
2020/12/23 21:48:59;;;;;;;10.63;2.50;;;;;;;;;;5115992;28;20030;-54
2020/12/23 21:51:29;;;;;;;2.93;1.57;;;;;;;;;;5115922;28;20027;-53
2020/12/23 21:53:56;;;;;;;3.73;1.73;;;;;;;;;;5115813;28;20462;-54
2020/12/23 21:56:23;;;;;;;5.37;1.57;;;;;;;;;;5115801;28;20433;-54
2020/12/23 21:58:50;;;;;;;5.03;1.57;;;;;;;;;;5115637;28;20028;-54
2020/12/23 22:01:23;;;;;;;1.97;1.10;;;;;;;;;;5115678;28;20027;-54
2020/12/23 22:03:50;;;;;;;4.63;1.20;;;;;;;;;;5115552;28;20385;-53
2020/12/23 22:06:18;;;;;;;10.27;2.40;;;;;;;;;;5115445;28;20028;-54
2020/12/23 22:08:45;;;;;;;6.17;1.60;;;;;;;;;;5115502;28;20035;-53
2020/12/23 22:11:19;;;;;;;5.13;1.87;;;;;;;;;;5115491;28;20454;-53
2020/12/23 22:13:46;;;;;;;5.63;1.80;;;;;;;;;;5115568;28;20015;-55
2020/12/23 22:16:13;;;;;;;4.07;1.77;;;;;;;;;;5115774;28;20034;-54
2020/12/23 22:18:40;;;;;;;8.73;2.30;;;;;;;;;;5115396;28;20080;-54
2020/12/23 22:21:06;;;;;;;3.87;2.00;;;;;;;;;;5115914;27;20043;-55
2020/12/23 22:23:33;;;;;;;3.40;1.40;;;;;;;;;;5115554;28;20031;-53
2020/12/23 22:26:00;;;;;;;2.47;1.70;;;;;;;;;;5115214;28;20016;-53
2020/12/23 22:28:27;;;;;;;4.30;1.50;;;;;;;;;;5115140;28;20032;-53
2020/12/23 22:30:53;;;;;;;5.73;1.90;;;;;;;;;;5115114;28;20059;-53
2020/12/23 22:33:20;;;;;;;4.00;1.20;;;;;;;;;;5115200;28;20639;-53
2020/12/23 22:35:47;;;;;;;4.40;1.60;;;;;;;;;;5115075;28;20023;-53
2020/12/23 22:38:13;;;;;;;4.47;2.20;;;;;;;;;;5115007;28;20034;-54
2020/12/23 22:40:40;;;;;;;4.87;1.90;;;;;;;;;;5114951;28;20027;-54
2020/12/23 22:43:07;;;;;;;5.57;2.17;;;;;;;;;;5114889;28;20027;-53
2020/12/23 22:45:33;;;;;;;5.80;1.80;;;;;;;;;;5113703;28;20358;-54
2020/12/23 22:48:00;;;;;;;3.57;2.00;;;;;;;;;;5114716;28;20028;-54
2020/12/23 22:50:27;;;;;;;6.60;2.13;;;;;;;;;;5114732;28;20099;-54
2020/12/23 22:52:54;;;;;;;3.47;2.00;;;;;;;;;;5114680;28;20023;-54
2020/12/23 22:55:20;;;;;;;5.63;1.90;;;;;;;;;;5114658;28;20039;-53
2020/12/23 22:57:47;;;;;;;5.43;1.93;;;;;;;;;;5114464;28;20047;-53
2020/12/23 23:00:15;;;;;;;4.63;2.23;;;;;;;;;;5114002;28;20423;-53
2020/12/23 23:02:43;;;;;;;6.53;1.90;;;;;;;;;;5114496;28;20390;-53
2020/12/23 23:05:10;;;;;;;5.40;2.10;;;;;;;;;;5114211;28;20482;-53
2020/12/23 23:07:36;;;;;;;5.43;2.03;;;;;;;;;;5114361;28;20027;-53
2020/12/23 23:10:11;;;;;;;4.17;1.70;;;;;;;;;;5114307;28;20020;-54
2020/12/23 23:12:41;;;;;;;3.97;2.00;;;;;;;;;;5114383;28;20026;-54
2020/12/23 23:15:08;;;;;;;3.17;1.77;;;;;;;;;;5114120;28;20020;-53
2020/12/23 23:17:35;;;;;;;12.33;2.27;;;;;;;;;;5114287;28;20020;-53
2020/12/23 23:20:05;;;;;;;7.13;2.00;;;;;;;;;;5114004;28;20091;-53
2020/12/23 23:22:32;;;;;;;9.07;2.27;;;;;;;;;;5114683;27;20058;-53
2020/12/23 23:24:58;;;;;;;10.73;2.33;;;;;;;;;;5114053;28;20030;-53
2020/12/23 23:27:25;;;;;;;12.60;2.90;;;;;;;;;;5113943;28;20020;-53
2020/12/23 23:29:52;;;;;;;14.03;2.43;;;;;;;;;;5113860;28;20026;-53
2020/12/23 23:32:19;;;;;;;16.67;2.60;;;;;;;;;;5113987;28;20385;-53
2020/12/23 23:34:45;;;;;;;10.83;3.13;;;;;;;;;;5113768;28;20058;-53
2020/12/23 23:37:12;;;;;;;9.40;2.40;;;;;;;;;;5113827;28;20103;-53
2020/12/23 23:39:38;;;;;;;4.93;2.43;;;;;;;;;;5113775;28;20024;-53
2020/12/23 23:42:05;;;;;;;9.17;3.33;;;;;;;;;;5113641;28;20127;-53
2020/12/23 23:44:32;;;;;;;8.87;2.27;;;;;;;;;;5114016;28;20411;-53
2020/12/23 23:46:59;;;;;;;14.87;2.30;;;;;;;;;;5113688;28;20058;-53
2020/12/23 23:49:25;;;;;;;5.20;2.13;;;;;;;;;;5113628;28;20259;-53
2020/12/23 23:51:52;;;;;;;12.83;3.00;;;;;;;;;;5113660;28;20031;-53
2020/12/23 23:54:19;;;;;;;10.40;2.53;;;;;;;;;;5113652;28;20032;-53
2020/12/23 23:56:45;;;;;;;19.57;4.37;;;;;;;;;;5113311;28;20031;-53
2020/12/23 23:59:12;;;;;;;13.77;4.40;;;;;;;;;;5113469;28;20081;-53
